Time;durP1;ratioP1;P1;durP2;ratioP2;P2;SDS_P1;SDS_P2;PMS_P1;PMS_P2;Temp;Humidity;BMP_temperature;BMP_pressure;BME280_temperature;BME280_humidity;BME280_pressure;Samples;Min_cycle;Max_cycle;Signal;HPM_P1;HPM_P2
2023/04/28 00:00:28;;;;;;;2.70;1.35;;;;;;;;;;5054212;28;20050;-67
2023/04/28 00:02:55;;;;;;;3.60;1.50;;;;;;;;;;5054204;28;20055;-66
2023/04/28 00:05:24;;;;;;;2.90;1.40;;;;;;;;;;5054115;28;20025;-67
2023/04/28 00:07:50;;;;;;;4.30;1.77;;;;;;;;;;5054103;28;20021;-67
2023/04/28 00:10:17;;;;;;;2.22;1.50;;;;;;;;;;5054206;28;20023;-67
2023/04/28 00:12:43;;;;;;;3.63;1.90;;;;;;;;;;5054366;28;20050;-67
2023/04/28 00:15:10;;;;;;;2.42;1.48;;;;;;;;;;5053900;28;20029;-67
2023/04/28 00:17:36;;;;;;;2.03;1.52;;;;;;;;;;5054148;28;20028;-67
2023/04/28 00:20:02;;;;;;;3.33;1.77;;;;;;;;;;5054081;28;20021;-67
2023/04/28 00:22:30;;;;;;;4.90;1.80;;;;;;;;;;5054101;28;20018;-67
2023/04/28 00:24:56;;;;;;;2.83;1.50;;;;;;;;;;5053760;28;20029;-67
2023/04/28 00:27:22;;;;;;;5.70;1.50;;;;;;;;;;5053860;28;20021;-67
2023/04/28 00:29:49;;;;;;;2.03;1.30;;;;;;;;;;5053723;28;20041;-68
2023/04/28 00:32:15;;;;;;;2.72;1.20;;;;;;;;;;5053999;28;20029;-67
2023/04/28 00:34:41;;;;;;;7.25;1.50;;;;;;;;;;5053546;28;20508;-68
2023/04/28 00:37:07;;;;;;;1.98;1.23;;;;;;;;;;5053644;28;20032;-67
2023/04/28 00:39:34;;;;;;;3.53;1.48;;;;;;;;;;5053661;28;20032;-67
2023/04/28 00:42:01;;;;;;;3.28;1.45;;;;;;;;;;5053593;28;20024;-67
2023/04/28 00:44:27;;;;;;;2.90;1.48;;;;;;;;;;5053445;28;20405;-67
2023/04/28 00:46:54;;;;;;;2.53;1.33;;;;;;;;;;5053452;28;20405;-65
2023/04/28 00:49:20;;;;;;;2.60;1.70;;;;;;;;;;5053418;28;20033;-66
2023/04/28 00:51:46;;;;;;;5.25;1.60;;;;;;;;;;5053161;28;20029;-67
2023/04/28 00:54:13;;;;;;;4.05;1.65;;;;;;;;;;5053271;28;20029;-67
2023/04/28 00:56:40;;;;;;;3.13;1.65;;;;;;;;;;5053107;28;20029;-67
2023/04/28 00:59:06;;;;;;;3.33;2.08;;;;;;;;;;5053311;28;20490;-68
2023/04/28 01:01:32;;;;;;;3.05;1.60;;;;;;;;;;5053085;28;20025;-67
2023/04/28 01:03:58;;;;;;;3.13;1.60;;;;;;;;;;5053149;28;20029;-67
2023/04/28 01:06:25;;;;;;;3.15;1.60;;;;;;;;;;5053337;28;20035;-67
2023/04/28 01:08:52;;;;;;;2.13;1.42;;;;;;;;;;5053049;28;20025;-67
2023/04/28 01:11:18;;;;;;;7.13;1.65;;;;;;;;;;5053214;28;20024;-67
2023/04/28 01:13:44;;;;;;;6.18;1.60;;;;;;;;;;5053306;28;20035;-67
2023/04/28 01:16:11;;;;;;;5.30;1.50;;;;;;;;;;5052803;28;20490;-67
2023/04/28 01:18:38;;;;;;;2.85;1.60;;;;;;;;;;5052821;28;20474;-67
2023/04/28 01:21:05;;;;;;;5.40;1.45;;;;;;;;;;5052646;28;20489;-67
2023/04/28 01:23:31;;;;;;;2.30;1.50;;;;;;;;;;5052715;28;20033;-67
2023/04/28 01:25:57;;;;;;;3.80;1.50;;;;;;;;;;5052557;28;20033;-66
2023/04/28 01:28:24;;;;;;;2.03;1.50;;;;;;;;;;5052826;28;20017;-67
2023/04/28 01:30:50;;;;;;;1.60;1.30;;;;;;;;;;5052520;28;20048;-67
2023/04/28 01:33:16;;;;;;;3.20;1.80;;;;;;;;;;5052555;28;20020;-67
2023/04/28 01:35:43;;;;;;;4.93;1.45;;;;;;;;;;5052287;28;20466;-67
2023/04/28 01:38:09;;;;;;;5.47;1.65;;;;;;;;;;5051448;28;20037;-67
2023/04/28 01:40:35;;;;;;;4.78;1.70;;;;;;;;;;5052568;28;20028;-67
2023/04/28 01:43:02;;;;;;;4.20;1.98;;;;;;;;;;5052530;28;20032;-67
2023/04/28 01:45:28;;;;;;;3.72;1.70;;;;;;;;;;5052105;28;20083;-67
2023/04/28 01:47:54;;;;;;;3.03;1.60;;;;;;;;;;5051899;28;20393;-67
2023/04/28 01:50:21;;;;;;;3.30;1.48;;;;;;;;;;5052035;28;20031;-68
2023/04/28 01:52:47;;;;;;;3.70;1.60;;;;;;;;;;5052520;28;20031;-67
2023/04/28 01:55:13;;;;;;;4.32;1.58;;;;;;;;;;5052078;28;20033;-67
2023/04/28 01:57:40;;;;;;;2.85;1.52;;;;;;;;;;5052382;28;20021;-67
2023/04/28 02:00:06;;;;;;;3.45;1.52;;;;;;;;;;5051901;28;20024;-67
2023/04/28 02:02:33;;;;;;;1.80;1.60;;;;;;;;;;5052314;28;20043;-67
2023/04/28 02:04:59;;;;;;;2.13;1.50;;;;;;;;;;5051798;28;20504;-67
2023/04/28 02:07:25;;;;;;;1.58;1.48;;;;;;;;;;5052275;28;20025;-67
2023/04/28 02:09:52;;;;;;;3.03;1.73;;;;;;;;;;5051855;28;20027;-67
2023/04/28 02:12:18;;;;;;;7.32;1.70;;;;;;;;;;5051901;28;20500;-67
2023/04/28 02:14:44;;;;;;;2.50;1.80;;;;;;;;;;5052100;28;20013;-67
2023/04/28 02:17:11;;;;;;;2.55;1.50;;;;;;;;;;5051645;28;20502;-68
2023/04/28 02:19:37;;;;;;;2.25;1.40;;;;;;;;;;5051693;28;20029;-67
2023/04/28 02:22:03;;;;;;;3.95;1.73;;;;;;;;;;5051623;28;20021;-67
2023/04/28 02:24:30;;;;;;;2.35;1.52;;;;;;;;;;5051561;28;20035;-67
2023/04/28 02:26:57;;;;;;;3.72;1.70;;;;;;;;;;5051677;28;20482;-67
2023/04/28 02:29:24;;;;;;;2.00;1.30;;;;;;;;;;5051596;28;20075;-67
2023/04/28 02:31:50;;;;;;;3.10;2.38;;;;;;;;;;5051763;28;20073;-68
2023/04/28 02:34:17;;;;;;;3.15;2.00;;;;;;;;;;5051486;28;20043;-67
2023/04/28 02:36:43;;;;;;;7.85;2.00;;;;;;;;;;5051288;28;20428;-67
2023/04/28 02:39:09;;;;;;;2.38;1.75;;;;;;;;;;5051291;28;20409;-67
2023/04/28 02:41:36;;;;;;;3.88;2.00;;;;;;;;;;5051806;28;20021;-67
2023/04/28 02:44:02;;;;;;;2.47;1.60;;;;;;;;;;5051079;28;20043;-67
2023/04/28 02:46:28;;;;;;;3.97;1.50;;;;;;;;;;5051308;28;20413;-67
2023/04/28 02:48:55;;;;;;;5.10;1.55;;;;;;;;;;5051379;28;20021;-67
2023/04/28 02:51:21;;;;;;;2.05;1.40;;;;;;;;;;5049972;28;20504;-67
2023/04/28 02:53:47;;;;;;;3.42;1.67;;;;;;;;;;5051740;28;20025;-67
2023/04/28 02:56:14;;;;;;;2.75;1.80;;;;;;;;;;5050996;28;20027;-67
2023/04/28 02:58:40;;;;;;;3.38;2.03;;;;;;;;;;5050467;28;20021;-67
2023/04/28 03:01:06;;;;;;;4.57;1.52;;;;;;;;;;5051082;28;20031;-67
2023/04/28 03:03:33;;;;;;;4.65;1.77;;;;;;;;;;5050720;28;20027;-67
2023/04/28 03:05:59;;;;;;;3.67;1.70;;;;;;;;;;5051323;28;20471;-67
2023/04/28 03:08:26;;;;;;;3.28;1.85;;;;;;;;;;5051356;28;20032;-67
2023/04/28 03:10:52;;;;;;;2.35;1.65;;;;;;;;;;5050904;28;20397;-67
2023/04/28 03:13:18;;;;;;;3.72;1.90;;;;;;;;;;5050881;28;20027;-67
2023/04/28 03:15:45;;;;;;;4.57;1.77;;;;;;;;;;5051217;28;20027;-67
2023/04/28 03:18:12;;;;;;;4.95;2.03;;;;;;;;;;5050751;28;20114;-67
2023/04/28 03:20:38;;;;;;;3.83;2.10;;;;;;;;;;5051201;28;20031;-67
2023/04/28 03:23:04;;;;;;;3.22;1.90;;;;;;;;;;5050969;28;20117;-67
2023/04/28 03:25:30;;;;;;;2.55;1.85;;;;;;;;;;5050716;28;20067;-67
2023/04/28 03:27:57;;;;;;;1.88;1.70;;;;;;;;;;5050791;28;20504;-67
2023/04/28 03:30:23;;;;;;;3.42;1.52;;;;;;;;;;5050953;28;20059;-67
2023/04/28 03:32:49;;;;;;;2.50;1.95;;;;;;;;;;5050528;28;20028;-67
2023/04/28 03:35:16;;;;;;;3.67;1.77;;;;;;;;;;5050641;28;20401;-67
2023/04/28 03:37:42;;;;;;;5.22;1.50;;;;;;;;;;5051027;28;20020;-67
2023/04/28 03:40:09;;;;;;;2.42;1.60;;;;;;;;;;5050965;28;20029;-67
2023/04/28 03:42:35;;;;;;;2.88;1.80;;;;;;;;;;5050747;28;20394;-67
2023/04/28 03:45:02;;;;;;;2.95;1.45;;;;;;;;;;5050678;28;20029;-67
2023/04/28 03:47:28;;;;;;;4.72;1.80;;;;;;;;;;5050368;28;20013;-67
2023/04/28 03:49:57;;;;;;;5.85;1.92;;;;;;;;;;5050653;28;20032;-67
2023/04/28 03:52:24;;;;;;;4.07;1.60;;;;;;;;;;5050641;28;20409;-67
2023/04/28 03:54:51;;;;;;;2.92;1.92;;;;;;;;;;5050736;28;20017;-67
2023/04/28 03:57:17;;;;;;;3.78;1.60;;;;;;;;;;5050702;28;20068;-67
2023/04/28 03:59:43;;;;;;;2.28;1.75;;;;;;;;;;5050560;28;20037;-67
2023/04/28 04:02:10;;;;;;;4.28;1.77;;;;;;;;;;5050635;28;20027;-67
2023/04/28 04:04:36;;;;;;;1.52;1.40;;;;;;;;;;5050397;28;20036;-67
2023/04/28 04:07:03;;;;;;;4.47;2.00;;;;;;;;;;5050552;28;20044;-67
2023/04/28 04:09:29;;;;;;;4.85;1.90;;;;;;;;;;5051471;28;20039;-67
2023/04/28 04:11:56;;;;;;;2.75;2.00;;;;;;;;;;5054253;28;20370;-67
2023/04/28 04:14:22;;;;;;;4.72;1.80;;;;;;;;;;5054551;28;20023;-67
2023/04/28 04:16:48;;;;;;;3.05;1.90;;;;;;;;;;5053780;28;20021;-67
2023/04/28 04:19:15;;;;;;;6.63;1.88;;;;;;;;;;5054281;28;20025;-67
2023/04/28 04:21:41;;;;;;;8.73;2.30;;;;;;;;;;5054184;28;20021;-67
2023/04/28 04:24:08;;;;;;;5.25;2.05;;;;;;;;;;5054079;28;20021;-67
2023/04/28 04:26:34;;;;;;;4.75;2.10;;;;;;;;;;5053979;28;20028;-67
2023/04/28 04:29:00;;;;;;;2.30;1.92;;;;;;;;;;5053840;28;20413;-67
2023/04/28 04:31:27;;;;;;;3.60;2.20;;;;;;;;;;5053736;28;20044;-67
2023/04/28 04:33:53;;;;;;;2.90;1.80;;;;;;;;;;5053525;28;20032;-67
2023/04/28 04:36:19;;;;;;;2.92;1.77;;;;;;;;;;5053575;28;20031;-67
2023/04/28 04:38:46;;;;;;;2.83;1.75;;;;;;;;;;5053658;28;20031;-67
2023/04/28 04:41:12;;;;;;;5.90;2.20;;;;;;;;;;5053953;28;20033;-66
2023/04/28 04:43:38;;;;;;;3.35;2.08;;;;;;;;;;5053773;28;20025;-67
2023/04/28 04:46:05;;;;;;;3.45;1.73;;;;;;;;;;5053283;28;20035;-67
2023/04/28 04:48:31;;;;;;;4.35;2.20;;;;;;;;;;5053713;28;20472;-67
2023/04/28 04:50:58;;;;;;;4.93;2.22;;;;;;;;;;5053447;28;20432;-67
2023/04/28 04:53:24;;;;;;;3.55;1.92;;;;;;;;;;5053360;28;20033;-67
2023/04/28 04:55:50;;;;;;;4.95;2.10;;;;;;;;;;5053169;28;20103;-67
2023/04/28 04:58:17;;;;;;;3.20;1.80;;;;;;;;;;5052176;28;20041;-67
2023/04/28 05:00:43;;;;;;;5.28;2.10;;;;;;;;;;5053374;28;20021;-67
2023/04/28 05:03:10;;;;;;;4.13;2.20;;;;;;;;;;5053438;28;20027;-67
2023/04/28 05:05:36;;;;;;;4.07;1.98;;;;;;;;;;5053502;28;20033;-67
2023/04/28 05:08:04;;;;;;;3.20;1.80;;;;;;;;;;5053081;28;20387;-67
2023/04/28 05:10:31;;;;;;;3.05;1.90;;;;;;;;;;5053148;28;20021;-67
2023/04/28 05:12:57;;;;;;;3.95;2.45;;;;;;;;;;5052960;28;20039;-68
2023/04/28 05:15:23;;;;;;;2.45;1.70;;;;;;;;;;5052704;28;20029;-68
2023/04/28 05:17:50;;;;;;;2.35;1.70;;;;;;;;;;5053114;28;20017;-67
2023/04/28 05:20:16;;;;;;;5.30;2.22;;;;;;;;;;5051485;28;20035;-67
2023/04/28 05:22:42;;;;;;;2.65;2.00;;;;;;;;;;5052297;28;20099;-67
2023/04/28 05:25:09;;;;;;;3.00;1.65;;;;;;;;;;5052788;28;20036;-67
2023/04/28 05:27:38;;;;;;;2.80;2.10;;;;;;;;;;5052481;28;20017;-67
2023/04/28 05:30:05;;;;;;;3.58;1.70;;;;;;;;;;5052678;28;20448;-67
2023/04/28 05:32:31;;;;;;;3.63;2.20;;;;;;;;;;5052763;28;20035;-67
2023/04/28 05:34:57;;;;;;;2.38;2.15;;;;;;;;;;5052649;28;20405;-66
2023/04/28 05:37:24;;;;;;;2.67;2.08;;;;;;;;;;5052657;28;20035;-67
2023/04/28 05:39:50;;;;;;;6.03;2.00;;;;;;;;;;5052735;28;20025;-67
2023/04/28 05:42:17;;;;;;;3.15;1.92;;;;;;;;;;5052454;28;20017;-67
2023/04/28 05:44:43;;;;;;;3.13;1.60;;;;;;;;;;5052118;28;20494;-67
2023/04/28 05:47:09;;;;;;;3.88;2.15;;;;;;;;;;5052658;28;20027;-67
2023/04/28 05:49:36;;;;;;;3.00;1.85;;;;;;;;;;5052306;28;20509;-67
2023/04/28 05:52:02;;;;;;;3.17;1.98;;;;;;;;;;5052287;28;20021;-67
2023/04/28 05:54:29;;;;;;;6.47;1.90;;;;;;;;;;5052377;28;20023;-67
2023/04/28 05:56:56;;;;;;;2.80;1.50;;;;;;;;;;5052034;28;20017;-67
2023/04/28 05:59:23;;;;;;;2.63;1.80;;;;;;;;;;5052229;28;20043;-67
2023/04/28 06:01:52;;;;;;;4.30;1.90;;;;;;;;;;5051986;28;20025;-67
2023/04/28 06:04:18;;;;;;;3.70;1.95;;;;;;;;;;5052188;28;20025;-67
2023/04/28 06:06:44;;;;;;;8.00;2.25;;;;;;;;;;5052268;28;20029;-67
2023/04/28 06:09:11;;;;;;;4.97;1.95;;;;;;;;;;5051961;28;20385;-67
2023/04/28 06:11:37;;;;;;;1.70;1.60;;;;;;;;;;5051756;28;20413;-67
2023/04/28 06:14:04;;;;;;;3.75;2.00;;;;;;;;;;5051762;28;20029;-67
2023/04/28 06:16:31;;;;;;;3.33;1.50;;;;;;;;;;5051640;28;20383;-67
2023/04/28 06:18:57;;;;;;;2.85;1.50;;;;;;;;;;5051857;28;20474;-67
2023/04/28 06:21:24;;;;;;;10.63;1.35;;;;;;;;;;5051811;28;20031;-67
2023/04/28 06:23:50;;;;;;;3.25;1.40;;;;;;;;;;5048327;28;20329;-68
2023/04/28 06:26:17;;;;;;;6.25;1.17;;;;;;;;;;5031802;28;20086;-67
2023/04/28 06:28:43;;;;;;;4.30;1.40;;;;;;;;;;5031523;28;20449;-67
2023/04/28 06:31:09;;;;;;;3.30;1.25;;;;;;;;;;5042539;28;20030;-67
2023/04/28 06:33:36;;;;;;;5.10;1.30;;;;;;;;;;5040128;28;20029;-67
2023/04/28 06:36:03;;;;;;;3.65;1.42;;;;;;;;;;5044333;28;20025;-67
2023/04/28 06:38:29;;;;;;;4.53;1.38;;;;;;;;;;5031658;28;20029;-68
2023/04/28 06:40:56;;;;;;;2.75;1.25;;;;;;;;;;5031362;28;20029;-68
2023/04/28 06:43:22;;;;;;;8.82;1.70;;;;;;;;;;5034005;28;20036;-67
2023/04/28 06:45:48;;;;;;;7.95;1.50;;;;;;;;;;5051338;28;20114;-67
2023/04/28 06:48:15;;;;;;;7.90;1.50;;;;;;;;;;5051295;28;20025;-67
2023/04/28 06:50:41;;;;;;;10.07;2.05;;;;;;;;;;5049042;28;20093;-68
2023/04/28 06:53:07;;;;;;;6.75;1.48;;;;;;;;;;5050931;28;20604;-68
2023/04/28 06:55:34;;;;;;;7.00;3.83;;;;;;;;;;5050522;28;20021;-68
2023/04/28 06:58:00;;;;;;;3.97;1.20;;;;;;;;;;5049683;28;20021;-68
2023/04/28 07:00:27;;;;;;;3.28;1.40;;;;;;;;;;5050990;28;20025;-68
2023/04/28 07:02:53;;;;;;;3.08;1.20;;;;;;;;;;5050148;28;20094;-68
2023/04/28 07:05:19;;;;;;;4.00;1.45;;;;;;;;;;5050494;28;20041;-68
2023/04/28 07:07:47;;;;;;;2.20;1.40;;;;;;;;;;5051096;28;20085;-68
2023/04/28 07:10:14;;;;;;;1.85;1.30;;;;;;;;;;5050720;28;20039;-68
2023/04/28 07:12:40;;;;;;;3.38;1.52;;;;;;;;;;5050954;28;20013;-68
2023/04/28 07:15:07;;;;;;;3.55;1.10;;;;;;;;;;5050764;28;20029;-68
2023/04/28 07:17:33;;;;;;;2.60;1.38;;;;;;;;;;5050555;28;20025;-68
2023/04/28 07:19:59;;;;;;;2.30;1.17;;;;;;;;;;5051123;28;20029;-68
2023/04/28 07:22:26;;;;;;;1.77;1.20;;;;;;;;;;5050956;28;20029;-68
2023/04/28 07:24:52;;;;;;;2.50;1.08;;;;;;;;;;5050400;28;20039;-68
2023/04/28 07:27:18;;;;;;;1.58;0.90;;;;;;;;;;5051070;28;20031;-68
2023/04/28 07:29:45;;;;;;;2.00;1.33;;;;;;;;;;5050842;28;20047;-68
2023/04/28 07:32:11;;;;;;;3.35;1.42;;;;;;;;;;5050708;28;20025;-68
2023/04/28 07:34:37;;;;;;;2.22;1.17;;;;;;;;;;5051108;28;20584;-67
2023/04/28 07:37:04;;;;;;;3.53;1.10;;;;;;;;;;5050789;28;20021;-67
2023/04/28 07:39:31;;;;;;;3.35;1.42;;;;;;;;;;5050978;28;20033;-67
2023/04/28 07:41:57;;;;;;;2.08;1.02;;;;;;;;;;5050718;28;20028;-67
2023/04/28 07:44:24;;;;;;;2.72;1.45;;;;;;;;;;5052204;28;20025;-68
2023/04/28 07:46:50;;;;;;;2.30;1.33;;;;;;;;;;5054918;28;20415;-68
2023/04/28 07:49:17;;;;;;;4.55;1.65;;;;;;;;;;5054684;28;20028;-67
2023/04/28 07:51:43;;;;;;;6.78;1.70;;;;;;;;;;5054225;28;20378;-67
2023/04/28 07:54:10;;;;;;;3.63;1.65;;;;;;;;;;5054188;28;20532;-67
2023/04/28 07:56:36;;;;;;;6.00;1.40;;;;;;;;;;5054366;28;20040;-68
2023/04/28 07:59:02;;;;;;;6.80;1.80;;;;;;;;;;5053969;28;20037;-67
2023/04/28 08:01:29;;;;;;;5.47;2.35;;;;;;;;;;5054181;28;20017;-67
2023/04/28 08:03:55;;;;;;;3.30;1.50;;;;;;;;;;5054090;28;20032;-70
2023/04/28 08:06:21;;;;;;;3.65;1.67;;;;;;;;;;5054297;28;20397;-69
2023/04/28 08:08:48;;;;;;;7.50;1.90;;;;;;;;;;5053716;28;20522;-68
2023/04/28 08:11:14;;;;;;;7.82;1.83;;;;;;;;;;5054354;28;20029;-69
2023/04/28 08:13:41;;;;;;;3.60;2.13;;;;;;;;;;5053942;28;20021;-70
2023/04/28 08:16:07;;;;;;;5.72;1.80;;;;;;;;;;5053991;28;20025;-69
2023/04/28 08:18:33;;;;;;;4.28;1.60;;;;;;;;;;5054284;28;20017;-69
2023/04/28 08:21:00;;;;;;;8.90;1.50;;;;;;;;;;5054126;28;20025;-69
2023/04/28 08:23:28;;;;;;;3.08;1.88;;;;;;;;;;5052954;28;20017;-69
2023/04/28 08:25:54;;;;;;;3.60;1.50;;;;;;;;;;5051804;28;20037;-69
2023/04/28 08:28:20;;;;;;;4.97;1.60;;;;;;;;;;5053673;28;20035;-70
2023/04/28 08:30:47;;;;;;;6.75;1.63;;;;;;;;;;5053445;28;20559;-70
2023/04/28 08:33:13;;;;;;;2.92;1.30;;;;;;;;;;5053612;28;20029;-69
2023/04/28 08:35:40;;;;;;;2.55;1.20;;;;;;;;;;5053187;28;20029;-69
2023/04/28 08:38:07;;;;;;;5.82;1.17;;;;;;;;;;5052078;28;20039;-70
2023/04/28 08:40:33;;;;;;;7.88;1.35;;;;;;;;;;5053314;28;20405;-70
2023/04/28 08:43:00;;;;;;;3.10;1.30;;;;;;;;;;5053379;28;20090;-70
2023/04/28 08:45:26;;;;;;;1.70;1.20;;;;;;;;;;5052982;28;20512;-70
2023/04/28 08:47:53;;;;;;;1.60;1.15;;;;;;;;;;5053067;28;20032;-70
2023/04/28 08:50:23;;;;;;;1.83;1.30;;;;;;;;;;5052896;28;20025;-70
2023/04/28 08:52:52;;;;;;;2.20;1.10;;;;;;;;;;5053091;28;20531;-70
2023/04/28 08:55:18;;;;;;;3.28;1.02;;;;;;;;;;5050723;28;20025;-71
2023/04/28 08:57:46;;;;;;;4.65;1.40;;;;;;;;;;5052056;28;20029;-71
2023/04/28 09:00:12;;;;;;;6.43;1.70;;;;;;;;;;5052901;28;20024;-71
2023/04/28 09:02:41;;;;;;;2.30;1.40;;;;;;;;;;5053090;28;20025;-71
2023/04/28 09:05:07;;;;;;;4.63;1.50;;;;;;;;;;5052568;28;20033;-71
2023/04/28 09:07:35;;;;;;;3.42;1.40;;;;;;;;;;5052584;28;20031;-71
2023/04/28 09:10:21;;;;;;;5.63;1.60;;;;;;;;;;5052612;28;20032;-71
2023/04/28 09:12:50;;;;;;;3.72;1.23;;;;;;;;;;5053059;28;20033;-71
2023/04/28 09:15:29;;;;;;;1.75;1.05;;;;;;;;;;5052626;28;20031;-69
2023/04/28 09:17:55;;;;;;;3.67;1.35;;;;;;;;;;5052772;28;20032;-69
2023/04/28 09:20:28;;;;;;;3.72;1.10;;;;;;;;;;5052329;28;20029;-68
2023/04/28 09:22:55;;;;;;;4.45;1.30;;;;;;;;;;5052857;28;20029;-72
2023/04/28 09:25:22;;;;;;;3.67;1.20;;;;;;;;;;5051410;28;20043;-72
2023/04/28 09:27:52;;;;;;;4.30;1.40;;;;;;;;;;5053033;28;20420;-69
2023/04/28 09:30:19;;;;;;;2.72;1.30;;;;;;;;;;5052921;28;20055;-69
2023/04/28 09:32:46;;;;;;;2.25;1.10;;;;;;;;;;5052460;28;20382;-69
2023/04/28 09:35:13;;;;;;;2.38;1.40;;;;;;;;;;5052202;28;20539;-69
2023/04/28 09:37:42;;;;;;;4.32;1.45;;;;;;;;;;5052396;28;20047;-69
2023/04/28 09:40:09;;;;;;;2.55;1.17;;;;;;;;;;5052336;28;20032;-70
2023/04/28 09:42:43;;;;;;;2.40;1.30;;;;;;;;;;5052514;28;20028;-69
2023/04/28 09:45:12;;;;;;;1.85;1.10;;;;;;;;;;5052350;28;20049;-68
2023/04/28 09:47:40;;;;;;;2.15;1.05;;;;;;;;;;5052591;28;20021;-69
2023/04/28 09:50:13;;;;;;;2.33;1.00;;;;;;;;;;5051925;28;20397;-69
2023/04/28 09:52:44;;;;;;;1.92;1.23;;;;;;;;;;5052240;28;20043;-71
2023/04/28 09:55:11;;;;;;;2.38;1.02;;;;;;;;;;5052059;28;20029;-71
2023/04/28 09:57:38;;;;;;;1.92;1.20;;;;;;;;;;5051997;28;20025;-71
2023/04/28 10:00:06;;;;;;;2.95;1.20;;;;;;;;;;5051967;28;20021;-71
2023/04/28 10:02:37;;;;;;;1.75;1.10;;;;;;;;;;5052194;28;20017;-71
2023/04/28 10:05:03;;;;;;;3.20;1.15;;;;;;;;;;5051585;28;20033;-70
2023/04/28 10:07:34;;;;;;;1.92;1.10;;;;;;;;;;5051300;28;20017;-71
2023/04/28 10:10:01;;;;;;;4.07;1.35;;;;;;;;;;5051534;28;20082;-70
2023/04/28 10:12:27;;;;;;;1.35;1.13;;;;;;;;;;5050733;28;20508;-71
2023/04/28 10:14:53;;;;;;;1.75;1.15;;;;;;;;;;5052100;28;20028;-71
2023/04/28 10:17:21;;;;;;;0.90;0.90;;;;;;;;;;5051297;28;20017;-71
2023/04/28 10:19:51;;;;;;;3.80;1.00;;;;;;;;;;5051553;28;20021;-71
2023/04/28 10:22:31;;;;;;;1.52;1.13;;;;;;;;;;5051548;28;20037;-71
2023/04/28 10:25:06;;;;;;;1.38;1.10;;;;;;;;;;5051318;28;20486;-71
2023/04/28 10:27:34;;;;;;;2.45;1.25;;;;;;;;;;5051387;28;20391;-71
2023/04/28 10:30:13;;;;;;;2.50;1.20;;;;;;;;;;5051408;28;20049;-72
2023/04/28 10:32:40;;;;;;;1.80;1.30;;;;;;;;;;5051086;28;20401;-72
2023/04/28 10:35:22;;;;;;;3.08;1.20;;;;;;;;;;5051451;28;20040;-71
2023/04/28 10:38:07;;;;;;;2.45;1.33;;;;;;;;;;5051491;28;20032;-71
2023/04/28 10:40:34;;;;;;;1.50;1.02;;;;;;;;;;5051556;28;20029;-72
2023/04/28 10:43:01;;;;;;;1.30;1.20;;;;;;;;;;5051501;28;20045;-71
2023/04/28 10:45:43;;;;;;;3.22;1.20;;;;;;;;;;5051261;28;20082;-71
2023/04/28 10:48:09;;;;;;;2.33;1.30;;;;;;;;;;5051108;28;20086;-71
2023/04/28 10:50:36;;;;;;;4.50;1.00;;;;;;;;;;5051801;28;20074;-72
2023/04/28 10:53:03;;;;;;;1.77;1.17;;;;;;;;;;5051477;28;20025;-71
2023/04/28 10:55:35;;;;;;;3.92;1.05;;;;;;;;;;5050917;28;20078;-72
2023/04/28 10:58:17;;;;;;;1.73;1.00;;;;;;;;;;5051056;28;20524;-71
2023/04/28 11:00:44;;;;;;;2.15;1.30;;;;;;;;;;5050770;28;20074;-71
2023/04/28 11:03:29;;;;;;;1.50;1.20;;;;;;;;;;5051004;28;20017;-71
2023/04/28 11:06:14;;;;;;;1.92;1.23;;;;;;;;;;5050995;28;20033;-72
2023/04/28 11:08:40;;;;;;;3.05;1.10;;;;;;;;;;5050884;28;20210;-71
2023/04/28 11:11:09;;;;;;;2.33;1.10;;;;;;;;;;5051341;28;20028;-71
2023/04/28 11:13:36;;;;;;;2.33;1.33;;;;;;;;;;5050968;28;20493;-71
2023/04/28 11:16:06;;;;;;;2.08;1.20;;;;;;;;;;5049384;28;20033;-72
2023/04/28 11:18:48;;;;;;;2.88;1.35;;;;;;;;;;5050983;28;20024;-71
2023/04/28 11:21:15;;;;;;;3.33;1.38;;;;;;;;;;5055400;28;20021;-71
2023/04/28 11:23:42;;;;;;;8.85;1.30;;;;;;;;;;5055242;28;20029;-71
2023/04/28 11:26:08;;;;;;;3.08;1.50;;;;;;;;;;5054913;28;20082;-71
2023/04/28 11:28:38;;;;;;;1.80;1.30;;;;;;;;;;5053777;28;20405;-72
2023/04/28 11:31:11;;;;;;;1.88;1.30;;;;;;;;;;5054816;28;20059;-71
2023/04/28 11:33:38;;;;;;;1.25;1.15;;;;;;;;;;5054889;28;20037;-71
2023/04/28 11:36:06;;;;;;;5.65;1.70;;;;;;;;;;5055001;28;20508;-71
2023/04/28 11:38:45;;;;;;;1.42;1.17;;;;;;;;;;5055242;28;20021;-71
2023/04/28 11:41:12;;;;;;;2.08;1.40;;;;;;;;;;5054860;28;20021;-71
2023/04/28 11:43:38;;;;;;;4.28;1.10;;;;;;;;;;5055047;28;20021;-71
2023/04/28 11:46:06;;;;;;;2.92;1.17;;;;;;;;;;5054362;28;20047;-71
2023/04/28 11:48:33;;;;;;;1.30;1.00;;;;;;;;;;5053314;28;20082;-71
2023/04/28 11:50:59;;;;;;;3.80;1.50;;;;;;;;;;5054443;28;20029;-72
2023/04/28 11:53:46;;;;;;;1.80;1.23;;;;;;;;;;5054608;28;20025;-72
2023/04/28 11:56:12;;;;;;;4.72;1.20;;;;;;;;;;5054789;28;20021;-71
2023/04/28 11:58:39;;;;;;;3.22;1.30;;;;;;;;;;5054477;28;20531;-71
2023/04/28 12:01:06;;;;;;;3.58;1.42;;;;;;;;;;5054084;28;20486;-71
2023/04/28 12:03:33;;;;;;;1.92;1.40;;;;;;;;;;5054225;28;20032;-71
2023/04/28 12:05:59;;;;;;;2.65;1.50;;;;;;;;;;5051902;28;20039;-71
2023/04/28 12:08:28;;;;;;;5.18;1.35;;;;;;;;;;5054352;28;20035;-71
2023/04/28 12:11:14;;;;;;;1.92;1.45;;;;;;;;;;5054570;28;20424;-71
2023/04/28 12:13:41;;;;;;;2.63;1.42;;;;;;;;;;5053948;28;20017;-71
2023/04/28 12:16:08;;;;;;;2.42;1.38;;;;;;;;;;5053731;28;20074;-71
2023/04/28 12:18:35;;;;;;;3.45;1.30;;;;;;;;;;5053800;28;20490;-71
2023/04/28 12:21:02;;;;;;;2.17;1.33;;;;;;;;;;5054021;28;20031;-71
2023/04/28 12:23:38;;;;;;;2.30;1.50;;;;;;;;;;5053806;28;20565;-71
2023/04/28 12:26:05;;;;;;;2.17;1.38;;;;;;;;;;5053656;28;20037;-72
2023/04/28 12:28:39;;;;;;;2.53;1.38;;;;;;;;;;5053499;28;20047;-71
2023/04/28 12:31:07;;;;;;;7.88;1.55;;;;;;;;;;5053718;28;20502;-71
2023/04/28 12:33:36;;;;;;;2.92;1.60;;;;;;;;;;5054131;28;20031;-71
2023/04/28 12:36:06;;;;;;;3.70;1.52;;;;;;;;;;5053415;28;20408;-71
2023/04/28 12:38:32;;;;;;;4.15;1.40;;;;;;;;;;5053990;28;20016;-71
2023/04/28 12:40:59;;;;;;;1.95;1.48;;;;;;;;;;5053820;28;20401;-71
2023/04/28 12:43:27;;;;;;;4.78;1.52;;;;;;;;;;5053059;28;20017;-70
2023/04/28 12:45:57;;;;;;;1.98;1.40;;;;;;;;;;5053042;28;20028;-72
2023/04/28 12:48:23;;;;;;;2.33;1.30;;;;;;;;;;5053924;28;20017;-72
2023/04/28 12:50:51;;;;;;;4.45;1.70;;;;;;;;;;5052993;28;20039;-71
2023/04/28 12:53:17;;;;;;;5.32;1.25;;;;;;;;;;5053381;28;20047;-71
2023/04/28 12:55:43;;;;;;;1.33;1.23;;;;;;;;;;5053355;28;20025;-71
2023/04/28 12:58:10;;;;;;;3.03;1.52;;;;;;;;;;5053031;28;20021;-71
2023/04/28 13:00:36;;;;;;;2.85;1.60;;;;;;;;;;5052612;28;20025;-71
2023/04/28 13:03:02;;;;;;;2.40;1.50;;;;;;;;;;5052854;28;20025;-71
2023/04/28 13:05:29;;;;;;;5.20;1.58;;;;;;;;;;5052645;28;20037;-71
2023/04/28 13:07:55;;;;;;;2.17;1.42;;;;;;;;;;5052432;28;20531;-71
2023/04/28 13:10:22;;;;;;;3.80;1.83;;;;;;;;;;5053139;28;20025;-71
2023/04/28 13:12:48;;;;;;;1.65;1.50;;;;;;;;;;5052528;28;20025;-70
2023/04/28 13:15:15;;;;;;;4.60;2.15;;;;;;;;;;5053036;28;20028;-71
2023/04/28 13:17:41;;;;;;;2.78;1.60;;;;;;;;;;5052698;28;20028;-71
2023/04/28 13:20:08;;;;;;;2.80;1.38;;;;;;;;;;5052382;28;20038;-71
2023/04/28 13:22:34;;;;;;;2.25;1.60;;;;;;;;;;5052800;28;20029;-69
2023/04/28 13:25:01;;;;;;;4.75;1.63;;;;;;;;;;5052636;28;20032;-71
2023/04/28 13:27:29;;;;;;;4.07;1.67;;;;;;;;;;5051941;28;20507;-69
2023/04/28 13:29:57;;;;;;;3.03;1.58;;;;;;;;;;5052179;28;20025;-71
2023/04/28 13:32:24;;;;;;;6.30;1.67;;;;;;;;;;5052586;28;20025;-71
2023/04/28 13:34:50;;;;;;;5.50;1.75;;;;;;;;;;5052746;28;20028;-70
2023/04/28 13:37:17;;;;;;;3.58;1.83;;;;;;;;;;5052278;28;20024;-70
2023/04/28 13:39:43;;;;;;;3.90;1.80;;;;;;;;;;5051975;28;20452;-71
2023/04/28 13:42:12;;;;;;;3.08;1.75;;;;;;;;;;5051680;28;20025;-71
2023/04/28 13:44:38;;;;;;;4.32;1.90;;;;;;;;;;5052275;28;20067;-71
2023/04/28 13:47:08;;;;;;;2.28;1.70;;;;;;;;;;5052331;28;20384;-70
2023/04/28 13:49:36;;;;;;;4.40;2.20;;;;;;;;;;5052109;28;20059;-70
2023/04/28 13:52:02;;;;;;;3.13;1.80;;;;;;;;;;5052310;28;20017;-71
2023/04/28 13:54:28;;;;;;;5.68;1.73;;;;;;;;;;5052260;28;20025;-71
2023/04/28 13:56:55;;;;;;;3.90;1.92;;;;;;;;;;5051759;28;20033;-70
2023/04/28 13:59:22;;;;;;;3.85;1.90;;;;;;;;;;5052244;28;20019;-71
2023/04/28 14:01:48;;;;;;;3.55;1.63;;;;;;;;;;5051964;28;20393;-71
2023/04/28 14:04:14;;;;;;;3.53;1.80;;;;;;;;;;5051832;28;20029;-70
2023/04/28 14:06:41;;;;;;;3.78;1.50;;;;;;;;;;5051825;28;20455;-71
2023/04/28 14:09:07;;;;;;;6.75;1.70;;;;;;;;;;5051000;28;20679;-70
2023/04/28 14:11:34;;;;;;;4.47;2.10;;;;;;;;;;5051739;28;20025;-71
2023/04/28 14:14:00;;;;;;;2.50;1.63;;;;;;;;;;5051663;28;20035;-71
2023/04/28 14:16:27;;;;;;;2.92;1.60;;;;;;;;;;5051713;28;20032;-71
2023/04/28 14:18:54;;;;;;;4.00;1.70;;;;;;;;;;5051746;28;20103;-71
2023/04/28 14:21:20;;;;;;;3.55;1.70;;;;;;;;;;5051643;28;20039;-71
2023/04/28 14:23:47;;;;;;;4.47;1.77;;;;;;;;;;5051636;28;20035;-71
2023/04/28 14:26:13;;;;;;;5.60;1.70;;;;;;;;;;5051935;28;20043;-71
2023/04/28 14:28:40;;;;;;;5.10;1.83;;;;;;;;;;5051411;28;20033;-71
2023/04/28 14:31:07;;;;;;;4.13;1.50;;;;;;;;;;5051619;28;20089;-71
2023/04/28 14:33:33;;;;;;;2.72;1.48;;;;;;;;;;5051084;28;20082;-71
2023/04/28 14:36:01;;;;;;;9.05;1.98;;;;;;;;;;5050702;28;20439;-71
2023/04/28 14:38:29;;;;;;;6.10;1.42;;;;;;;;;;5050855;28;20082;-71
2023/04/28 14:40:55;;;;;;;5.95;1.65;;;;;;;;;;5050860;28;20490;-71
2023/04/28 14:43:22;;;;;;;3.95;1.40;;;;;;;;;;5050539;28;20517;-71